Time;durP1;ratioP1;P1;durP2;ratioP2;P2;SDS_P1;SDS_P2;PMS_P1;PMS_P2;Temp;Humidity;BMP_temperature;BMP_pressure;BME280_temperature;BME280_humidity;BME280_pressure;Samples;Min_cycle;Max_cycle;Signal;HPM_P1;HPM_P2
2021/11/21 00:00:47;;;;;;;33.87;17.27;;;9.10;93.80;;;;;;5061937;28;20755;-70
2021/11/21 00:03:15;;;;;;;37.03;17.37;;;9.10;94.00;;;;;;5062408;28;20241;-70
2021/11/21 00:05:44;;;;;;;38.37;15.90;;;9.10;94.10;;;;;;5054462;28;20211;-70
2021/11/21 00:08:13;;;;;;;33.87;16.70;;;9.10;94.10;;;;;;5067790;28;20246;-70
2021/11/21 00:10:40;;;;;;;38.93;16.40;;;9.10;94.20;;;;;;5072568;28;20306;-70
2021/11/21 00:13:08;;;;;;;32.00;15.67;;;9.10;94.20;;;;;;5063163;28;20225;-70
2021/11/21 00:15:36;;;;;;;44.63;15.40;;;9.10;93.90;;;;;;5056167;28;20222;-69
2021/11/21 00:18:05;;;;;;;27.47;14.10;;;9.00;93.70;;;;;;5072049;28;20206;-69
2021/11/21 00:20:32;;;;;;;31.50;15.43;;;8.90;93.70;;;;;;5067644;28;20567;-69
2021/11/21 00:23:00;;;;;;;42.20;16.53;;;8.90;93.80;;;;;;5067544;28;20272;-69
2021/11/21 00:25:27;;;;;;;37.13;15.47;;;8.90;94.10;;;;;;5060210;28;20215;-69
2021/11/21 00:27:54;;;;;;;32.33;16.70;;;8.80;94.20;;;;;;5066501;28;20213;-69
2021/11/21 00:30:21;;;;;;;35.13;17.57;;;8.80;94.40;;;;;;5062388;28;20218;-70
2021/11/21 00:32:48;;;;;;;38.23;16.73;;;8.90;94.50;;;;;;5071195;28;20272;-70
2021/11/21 00:35:16;;;;;;;43.43;16.17;;;8.90;94.60;;;;;;5065614;28;20434;-70
2021/11/21 00:37:43;;;;;;;41.10;15.73;;;8.90;94.70;;;;;;5066765;28;20214;-70
2021/11/21 00:40:10;;;;;;;36.13;16.50;;;9.00;94.70;;;;;;5065925;28;20214;-70
2021/11/21 00:42:38;;;;;;;30.67;14.77;;;9.00;94.60;;;;;;5066875;28;20568;-70
2021/11/21 00:45:08;;;;;;;35.43;16.50;;;9.00;94.60;;;;;;5067793;28;20271;-70
2021/11/21 00:47:36;;;;;;;30.20;16.00;;;9.00;94.60;;;;;;5065953;28;20637;-70
2021/11/21 00:50:05;;;;;;;32.53;17.37;;;9.10;94.70;;;;;;5066506;28;20213;-70
2021/11/21 00:52:34;;;;;;;30.17;15.73;;;9.10;94.70;;;;;;5065632;28;20640;-70
2021/11/21 00:55:16;;;;;;;41.20;15.87;;;9.10;94.70;;;;;;5067000;28;20217;-70
2021/11/21 00:57:44;;;;;;;32.07;15.87;;;9.10;94.60;;;;;;5068486;28;20218;-70
2021/11/21 01:00:14;;;;;;;32.07;15.17;;;9.10;94.60;;;;;;5068340;28;20221;-70
2021/11/21 01:02:42;;;;;;;27.60;14.37;;;9.10;94.50;;;;;;5065079;28;20700;-69
2021/11/21 01:05:11;;;;;;;28.43;14.93;;;9.10;94.50;;;;;;5064929;28;20235;-69
2021/11/21 01:07:39;;;;;;;29.27;14.63;;;9.20;94.50;;;;;;5069098;28;20245;-69
2021/11/21 01:10:09;;;;;;;32.30;14.50;;;9.20;94.50;;;;;;5063974;28;20215;-69
2021/11/21 01:12:36;;;;;;;32.63;15.27;;;9.20;94.50;;;;;;5068823;28;20253;-69
2021/11/21 01:15:05;;;;;;;27.20;14.63;;;9.20;94.50;;;;;;5058995;28;20221;-69
2021/11/21 01:17:32;;;;;;;33.33;14.13;;;9.20;94.40;;;;;;5063217;28;20202;-69
2021/11/21 01:20:00;;;;;;;28.23;13.87;;;9.20;94.70;;;;;;5069334;28;20244;-69
2021/11/21 01:22:29;;;;;;;38.47;13.50;;;9.20;94.40;;;;;;5059489;28;20238;-70
2021/11/21 01:24:57;;;;;;;29.70;14.23;;;9.20;94.20;;;;;;5061666;28;20211;-70
2021/11/21 01:27:24;;;;;;;30.27;12.57;;;9.10;93.90;;;;;;5075119;28;20225;-70
2021/11/21 01:29:51;;;;;;;39.10;12.40;;;9.10;94.00;;;;;;5056934;28;20218;-70
2021/11/21 01:32:19;;;;;;;24.53;13.27;;;9.10;93.60;;;;;;5056477;28;20673;-70
2021/11/21 01:34:46;;;;;;;32.83;14.43;;;9.00;93.70;;;;;;5073835;28;20563;-70
2021/11/21 01:37:13;;;;;;;27.43;13.47;;;9.00;93.90;;;;;;5068822;28;20226;-70
2021/11/21 01:39:40;;;;;;;34.43;12.97;;;8.90;94.00;;;;;;5058845;28;20229;-70
2021/11/21 01:42:07;;;;;;;31.17;13.07;;;8.90;94.10;;;;;;5058196;28;20682;-70
2021/11/21 01:44:35;;;;;;;33.43;14.23;;;8.90;94.10;;;;;;5058601;28;20217;-70
2021/11/21 01:47:05;;;;;;;26.30;13.53;;;8.90;94.10;;;;;;5058744;28;20524;-70
2021/11/21 01:49:32;;;;;;;27.90;13.83;;;8.90;94.00;;;;;;5067780;28;20220;-70
2021/11/21 01:52:00;;;;;;;30.53;13.57;;;8.90;94.10;;;;;;5060366;28;20683;-70
2021/11/21 01:54:27;;;;;;;26.67;14.00;;;8.90;94.10;;;;;;5068746;28;20213;-70
2021/11/21 01:56:54;;;;;;;24.50;13.07;;;8.90;94.20;;;;;;5068719;28;20292;-70
2021/11/21 01:59:22;;;;;;;23.80;11.37;;;8.90;94.30;;;;;;5066127;28;20209;-70
2021/11/21 02:01:49;;;;;;;30.33;13.27;;;9.00;94.30;;;;;;5062232;28;20294;-70
2021/11/21 02:04:16;;;;;;;21.00;12.80;;;8.90;94.20;;;;;;5065672;28;20214;-70
2021/11/21 02:06:44;;;;;;;20.13;12.67;;;9.00;94.20;;;;;;5065258;28;20274;-70
2021/11/21 02:09:11;;;;;;;20.60;12.23;;;9.00;94.10;;;;;;5064974;28;20259;-70
2021/11/21 02:11:39;;;;;;;19.90;11.90;;;8.90;94.00;;;;;;5065494;28;20226;-70
2021/11/21 02:14:06;;;;;;;22.10;11.27;;;9.00;94.00;;;;;;5066628;28;20248;-70
2021/11/21 02:16:33;;;;;;;24.20;11.40;;;9.00;93.90;;;;;;5066299;28;20218;-70
2021/11/21 02:19:00;;;;;;;20.77;12.20;;;8.90;93.90;;;;;;5063403;28;20210;-70
2021/11/21 02:21:28;;;;;;;27.53;12.30;;;9.00;94.20;;;;;;5067887;28;20233;-70
2021/11/21 02:23:56;;;;;;;24.40;14.17;;;8.90;93.60;;;;;;5067777;28;20233;-70
2021/11/21 02:26:23;;;;;;;25.10;12.80;;;8.90;93.50;;;;;;5069114;28;20233;-70
2021/11/21 02:28:55;;;;;;;25.33;12.93;;;8.80;93.60;;;;;;5069625;28;20209;-70
2021/11/21 02:31:23;;;;;;;24.93;13.30;;;8.80;93.70;;;;;;5064033;28;20260;-70
2021/11/21 02:33:52;;;;;;;27.73;12.37;;;8.80;93.80;;;;;;5058914;28;20221;-70
2021/11/21 02:36:19;;;;;;;23.70;11.87;;;8.80;93.80;;;;;;5057440;28;20566;-70
2021/11/21 02:38:47;;;;;;;23.67;12.03;;;8.80;93.80;;;;;;5057165;28;20225;-70
2021/11/21 02:41:15;;;;;;;26.13;11.53;;;8.80;93.50;;;;;;5056458;28;20253;-70
2021/11/21 02:43:44;;;;;;;19.80;12.30;;;8.70;93.30;;;;;;5054883;28;20404;-70
2021/11/21 02:46:16;;;;;;;22.33;11.73;;;8.60;93.30;;;;;;5066266;28;20214;-70
2021/11/21 02:48:44;;;;;;;31.13;11.97;;;8.60;93.50;;;;;;5064185;28;20730;-70
2021/11/21 02:51:13;;;;;;;44.73;13.20;;;8.60;93.50;;;;;;5054260;28;20246;-70
2021/11/21 02:53:42;;;;;;;24.57;12.10;;;8.50;93.70;;;;;;5055796;28;20237;-70
2021/11/21 02:56:13;;;;;;;22.70;11.30;;;8.50;93.90;;;;;;5072276;28;20273;-69
2021/11/21 02:58:41;;;;;;;21.33;11.73;;;8.50;93.90;;;;;;5068673;28;20214;-69
2021/11/21 03:01:15;;;;;;;18.13;10.30;;;8.40;93.90;;;;;;5070997;28;20241;-69
2021/11/21 03:03:43;;;;;;;19.43;9.70;;;8.40;94.10;;;;;;5061367;28;20297;-69
2021/11/21 03:06:11;;;;;;;18.03;10.43;;;8.40;94.30;;;;;;5066307;28;20206;-69
2021/11/21 03:08:39;;;;;;;21.10;11.07;;;8.40;94.40;;;;;;5059236;28;20237;-69
2021/11/21 03:11:22;;;;;;;23.33;12.07;;;8.50;94.40;;;;;;5059686;28;20214;-69
2021/11/21 03:13:49;;;;;;;18.27;10.23;;;8.50;94.40;;;;;;5068571;28;20713;-69
2021/11/21 03:16:16;;;;;;;17.70;10.17;;;8.60;94.40;;;;;;5066189;28;20210;-69
2021/11/21 03:18:44;;;;;;;19.37;10.73;;;8.60;94.40;;;;;;5069169;28;20216;-69
2021/11/21 03:21:12;;;;;;;22.43;11.57;;;8.60;94.30;;;;;;5065975;28;20618;-69
2021/11/21 03:23:40;;;;;;;25.27;12.53;;;8.60;94.20;;;;;;5065953;28;20214;-69
2021/11/21 03:26:08;;;;;;;21.13;11.87;;;8.60;94.20;;;;;;5061938;28;20221;-69
2021/11/21 03:28:35;;;;;;;19.33;11.70;;;8.60;94.20;;;;;;5064318;28;20214;-69
2021/11/21 03:31:02;;;;;;;31.93;11.30;;;8.60;94.10;;;;;;5047184;28;20215;-70
2021/11/21 03:33:32;;;;;;;20.20;11.27;;;8.70;94.00;;;;;;5066894;28;20317;-70
2021/11/21 03:35:59;;;;;;;29.97;11.67;;;8.60;94.00;;;;;;5063341;28;20700;-70
2021/11/21 03:38:26;;;;;;;22.40;12.70;;;8.60;94.00;;;;;;5064920;28;20630;-70
2021/11/21 03:40:53;;;;;;;27.03;11.70;;;8.60;94.00;;;;;;5067036;28;20278;-70
2021/11/21 03:43:20;;;;;;;22.27;11.47;;;8.60;94.10;;;;;;5067696;28;20233;-70
2021/11/21 03:45:47;;;;;;;25.67;12.27;;;8.60;94.10;;;;;;5068010;28;20542;-70
2021/11/21 03:48:14;;;;;;;24.37;11.70;;;8.60;93.90;;;;;;5066223;28;20210;-70
2021/11/21 03:50:41;;;;;;;22.00;12.60;;;8.60;93.80;;;;;;5059497;28;20274;-70
2021/11/21 03:53:08;;;;;;;23.20;11.73;;;8.60;93.80;;;;;;5068439;28;20206;-70
2021/11/21 03:55:36;;;;;;;25.67;12.97;;;8.50;94.00;;;;;;5068412;28;20606;-70
2021/11/21 03:58:04;;;;;;;22.17;11.60;;;8.40;94.10;;;;;;5063201;28;20728;-70
2021/11/21 04:00:31;;;;;;;23.03;11.77;;;8.40;94.30;;;;;;5060721;28;20214;-70
2021/11/21 04:02:58;;;;;;;23.53;12.43;;;8.50;94.40;;;;;;5070163;28;20233;-70
2021/11/21 04:05:26;;;;;;;28.17;12.83;;;8.40;94.40;;;;;;5075413;28;20268;-70
2021/11/21 04:07:53;;;;;;;23.60;13.53;;;8.50;94.50;;;;;;5062608;28;20557;-70
2021/11/21 04:10:20;;;;;;;27.87;13.00;;;8.50;94.50;;;;;;5058710;28;20645;-70
2021/11/21 04:12:47;;;;;;;24.20;13.07;;;8.50;94.60;;;;;;5058779;28;20218;-69
2021/11/21 04:15:14;;;;;;;31.20;12.70;;;8.50;94.60;;;;;;5073347;28;20537;-69
2021/11/21 04:17:42;;;;;;;21.17;11.67;;;8.50;94.50;;;;;;5074764;28;20275;-69
2021/11/21 04:20:11;;;;;;;23.67;12.03;;;8.50;94.50;;;;;;5060215;28;20232;-69
2021/11/21 04:22:38;;;;;;;22.17;12.33;;;8.50;94.30;;;;;;5073863;28;20243;-69
2021/11/21 04:25:07;;;;;;;20.93;11.20;;;8.50;94.20;;;;;;5072573;28;20229;-69
2021/11/21 04:27:34;;;;;;;27.20;12.60;;;8.50;94.30;;;;;;5068578;28;20221;-69
2021/11/21 04:30:03;;;;;;;26.50;12.97;;;8.50;94.30;;;;;;5062839;28;20218;-69
2021/11/21 04:32:30;;;;;;;22.67;11.17;;;8.50;94.40;;;;;;5063704;28;20221;-69
2021/11/21 04:34:57;;;;;;;27.93;12.70;;;8.50;94.50;;;;;;5062654;28;20609;-69
2021/11/21 04:37:25;;;;;;;23.73;13.00;;;8.50;94.60;;;;;;5065965;28;20221;-69
2021/11/21 04:39:52;;;;;;;20.13;11.13;;;8.50;94.70;;;;;;5068823;28;20218;-69
2021/11/21 04:42:19;;;;;;;21.23;12.00;;;8.60;94.60;;;;;;5067269;28;20311;-69
2021/11/21 04:44:46;;;;;;;23.50;10.80;;;8.50;94.40;;;;;;5068084;28;20560;-69
2021/11/21 04:47:14;;;;;;;22.03;11.13;;;8.50;94.50;;;;;;5065669;28;20217;-69
2021/11/21 04:49:41;;;;;;;22.47;10.70;;;8.50;94.60;;;;;;5067071;28;20240;-69
2021/11/21 04:52:09;;;;;;;25.27;11.03;;;8.50;94.70;;;;;;5067028;28;20222;-69
2021/11/21 04:54:36;;;;;;;19.83;10.57;;;8.50;94.60;;;;;;5068320;28;20217;-69
2021/11/21 04:57:06;;;;;;;22.13;11.77;;;8.60;94.60;;;;;;5067547;28;20218;-69
2021/11/21 04:59:33;;;;;;;17.87;10.93;;;8.60;94.70;;;;;;5064617;28;20210;-69
2021/11/21 05:02:02;;;;;;;25.10;11.73;;;8.60;94.70;;;;;;5067841;28;20241;-69
2021/11/21 05:04:29;;;;;;;21.87;11.77;;;8.60;94.70;;;;;;5063624;28;20224;-69
2021/11/21 05:06:57;;;;;;;19.77;10.23;;;8.60;94.60;;;;;;5063542;28;20244;-69
2021/11/21 05:09:24;;;;;;;19.73;11.13;;;8.60;94.30;;;;;;5072269;28;20275;-69
2021/11/21 05:11:51;;;;;;;31.13;12.47;;;8.60;94.10;;;;;;5071700;28;20217;-69
2021/11/21 05:14:20;;;;;;;21.60;10.50;;;8.50;94.10;;;;;;5070945;28;20225;-69
2021/11/21 05:16:48;;;;;;;26.87;12.00;;;8.50;94.30;;;;;;5068386;28;20213;-71
2021/11/21 05:19:16;;;;;;;23.97;12.17;;;8.50;94.40;;;;;;5063226;28;20640;-70
2021/11/21 05:21:44;;;;;;;20.57;9.93;;;8.50;94.50;;;;;;5057996;28;20215;-70
2021/11/21 05:24:11;;;;;;;19.40;11.17;;;8.50;94.80;;;;;;5058020;28;20276;-70
2021/11/21 05:26:38;;;;;;;22.47;11.73;;;8.40;94.50;;;;;;5059281;28;20275;-70
2021/11/21 05:29:05;;;;;;;25.87;12.37;;;8.40;94.40;;;;;;5056762;28;20276;-70
2021/11/21 05:31:32;;;;;;;26.37;12.00;;;8.40;94.50;;;;;;5055283;28;20553;-70
2021/11/21 05:33:59;;;;;;;27.33;12.70;;;8.30;94.70;;;;;;5059507;28;20206;-70
2021/11/21 05:36:26;;;;;;;18.63;11.53;;;8.30;94.80;;;;;;5071568;28;20284;-70
2021/11/21 05:38:53;;;;;;;21.73;11.83;;;8.40;95.00;;;;;;5058494;28;20646;-70
2021/11/21 05:41:21;;;;;;;20.93;11.40;;;8.40;94.90;;;;;;5072879;28;20205;-70
2021/11/21 05:43:48;;;;;;;24.80;12.20;;;8.40;94.90;;;;;;5059664;28;20257;-70
2021/11/21 05:46:15;;;;;;;23.23;11.60;;;8.50;95.00;;;;;;5055511;28;20211;-70
2021/11/21 05:48:42;;;;;;;27.23;10.37;;;8.50;95.00;;;;;;5065865;28;20210;-70
2021/11/21 05:51:10;;;;;;;21.53;12.07;;;8.50;94.90;;;;;;5061450;28;20214;-70
2021/11/21 05:53:36;;;;;;;23.37;11.33;;;8.50;94.90;;;;;;5060985;28;20221;-70
2021/11/21 05:56:04;;;;;;;28.97;10.83;;;8.50;94.90;;;;;;5060824;28;20558;-70
2021/11/21 05:58:33;;;;;;;20.00;12.10;;;8.50;94.80;;;;;;5055649;28;20222;-70
2021/11/21 06:01:00;;;;;;;19.63;10.37;;;8.50;94.80;;;;;;5065016;28;20267;-70
2021/11/21 06:03:28;;;;;;;19.70;11.17;;;8.50;94.80;;;;;;5063264;28;20238;-70
2021/11/21 06:05:56;;;;;;;19.90;12.17;;;8.50;94.60;;;;;;5063672;28;20302;-70
2021/11/21 06:08:23;;;;;;;24.43;12.47;;;8.50;94.60;;;;;;5066129;28;20237;-70
2021/11/21 06:10:50;;;;;;;20.20;11.93;;;8.50;94.70;;;;;;5064953;28;20268;-70
2021/11/21 06:13:17;;;;;;;28.17;12.73;;;8.50;94.70;;;;;;5063484;28;20276;-70
2021/11/21 06:15:45;;;;;;;22.93;11.30;;;8.50;94.70;;;;;;5065275;28;20214;-70
2021/11/21 06:18:12;;;;;;;20.80;12.10;;;8.60;94.70;;;;;;5064265;28;20212;-70
2021/11/21 06:20:39;;;;;;;25.23;12.77;;;8.60;94.70;;;;;;5068904;28;20214;-70
2021/11/21 06:23:06;;;;;;;17.37;11.30;;;8.60;94.60;;;;;;5064877;28;20249;-70
2021/11/21 06:25:33;;;;;;;24.03;11.00;;;8.60;94.50;;;;;;5068529;28;20206;-70
2021/11/21 06:28:00;;;;;;;22.63;11.67;;;8.60;94.10;;;;;;5065755;28;20229;-71
2021/11/21 06:30:27;;;;;;;19.80;11.67;;;8.60;94.10;;;;;;5061482;28;20272;-70
2021/11/21 06:32:54;;;;;;;27.00;13.30;;;8.50;94.40;;;;;;5060532;28;20680;-70
2021/11/21 06:35:22;;;;;;;22.57;11.27;;;8.50;93.90;;;;;;5057565;28;20718;-70
2021/11/21 06:37:49;;;;;;;22.47;11.93;;;8.50;93.80;;;;;;5062594;28;20226;-70
2021/11/21 06:40:16;;;;;;;23.07;13.07;;;8.40;94.00;;;;;;5071757;28;20221;-70
2021/11/21 06:42:43;;;;;;;25.40;13.47;;;8.40;94.10;;;;;;5059144;28;20233;-70
2021/11/21 06:45:11;;;;;;;22.47;12.23;;;8.40;94.20;;;;;;5067462;28;20217;-70
2021/11/21 06:47:39;;;;;;;27.07;13.27;;;8.40;94.20;;;;;;5071799;28;20221;-70
2021/11/21 06:50:10;;;;;;;26.03;13.80;;;8.40;94.40;;;;;;5056282;28;20237;-70
2021/11/21 06:52:39;;;;;;;27.33;11.47;;;8.40;94.50;;;;;;5053486;28;20233;-70
2021/11/21 06:55:07;;;;;;;18.70;11.13;;;8.50;94.50;;;;;;5057807;28;20213;-70
2021/11/21 06:57:34;;;;;;;19.43;12.10;;;8.50;94.50;;;;;;5059402;28;20218;-70
2021/11/21 07:00:05;;;;;;;19.43;11.00;;;8.50;94.60;;;;;;5065586;28;20206;-70
2021/11/21 07:02:32;;;;;;;27.73;12.20;;;8.50;94.60;;;;;;5068524;28;20549;-70
2021/11/21 07:05:00;;;;;;;22.20;10.87;;;8.60;94.50;;;;;;5060580;28;20316;-70
2021/11/21 07:07:27;;;;;;;25.60;11.17;;;8.50;94.30;;;;;;5064420;28;20315;-70
2021/11/21 07:09:54;;;;;;;20.43;11.57;;;8.60;94.20;;;;;;5066198;28;20264;-70
2021/11/21 07:12:21;;;;;;;20.40;12.17;;;8.50;94.10;;;;;;5061114;28;20665;-70
2021/11/21 07:15:08;;;;;;;28.23;12.37;;;8.50;94.20;;;;;;5063574;28;20205;-70
2021/11/21 07:17:35;;;;;;;33.07;13.77;;;8.60;94.30;;;;;;5065247;28;20286;-70
2021/11/21 07:20:05;;;;;;;22.77;12.37;;;8.60;94.20;;;;;;5066539;28;20220;-70
2021/11/21 07:22:32;;;;;;;20.20;11.90;;;8.50;94.30;;;;;;5064429;28;20218;-70
2021/11/21 07:25:00;;;;;;;17.53;10.93;;;8.60;94.40;;;;;;5068545;28;20214;-70
2021/11/21 07:27:27;;;;;;;22.13;11.67;;;8.60;94.50;;;;;;5068386;28;20209;-70
2021/11/21 07:29:54;;;;;;;26.10;12.17;;;8.60;94.50;;;;;;5069372;28;20210;-70
2021/11/21 07:32:21;;;;;;;18.80;9.47;;;8.60;94.50;;;;;;5066778;28;20218;-70
2021/11/21 07:34:48;;;;;;;17.40;11.17;;;8.70;94.50;;;;;;5066726;28;20254;-70
2021/11/21 07:37:15;;;;;;;22.63;9.70;;;8.70;94.40;;;;;;5066294;28;20221;-70
2021/11/21 07:39:42;;;;;;;17.60;10.07;;;8.70;94.40;;;;;;5069465;28;20209;-70
2021/11/21 07:42:09;;;;;;;21.20;11.03;;;8.70;94.30;;;;;;5064914;28;20216;-70
2021/11/21 07:44:36;;;;;;;19.90;9.70;;;8.80;94.30;;;;;;5064480;28;20221;-70
2021/11/21 07:47:04;;;;;;;22.13;10.33;;;8.80;94.30;;;;;;5069248;28;20299;-70
2021/11/21 07:49:32;;;;;;;21.67;10.87;;;8.80;94.30;;;;;;5064335;28;20238;-70
2021/11/21 07:51:59;;;;;;;22.87;10.60;;;8.80;94.30;;;;;;5064101;28;20217;-70
2021/11/21 07:54:26;;;;;;;24.17;10.30;;;8.90;94.30;;;;;;5066488;28;20244;-70
2021/11/21 07:56:53;;;;;;;20.80;9.43;;;8.90;94.30;;;;;;5071488;28;20198;-70
2021/11/21 07:59:20;;;;;;;20.17;9.00;;;8.90;94.00;;;;;;5068563;28;20218;-70
2021/11/21 08:01:49;;;;;;;18.80;10.00;;;8.90;93.80;;;;;;5067802;28;20214;-70
2021/11/21 08:04:16;;;;;;;21.07;10.87;;;8.90;93.80;;;;;;5057804;28;20689;-70
2021/11/21 08:06:44;;;;;;;15.83;10.27;;;8.90;93.90;;;;;;5063896;28;20309;-70
2021/11/21 08:09:12;;;;;;;16.37;10.27;;;8.90;94.10;;;;;;5070926;28;20557;-69
2021/11/21 08:11:40;;;;;;;15.33;10.30;;;8.90;94.10;;;;;;5060457;28;20229;-69
2021/11/21 08:14:07;;;;;;;19.27;9.20;;;8.90;94.10;;;;;;5071027;28;20225;-69
2021/11/21 08:16:34;;;;;;;17.63;11.17;;;9.00;94.00;;;;;;5071038;28;20214;-69
2021/11/21 08:19:02;;;;;;;19.53;10.27;;;9.00;93.90;;;;;;5065884;28;20658;-69
2021/11/21 08:21:29;;;;;;;18.20;11.40;;;9.00;93.80;;;;;;5070723;28;20288;-69
2021/11/21 08:23:56;;;;;;;17.47;10.87;;;9.00;93.80;;;;;;5061510;28;20284;-69
2021/11/21 08:26:23;;;;;;;18.63;11.00;;;9.00;93.90;;;;;;5064982;28;20225;-69
2021/11/21 08:28:50;;;;;;;20.73;10.93;;;9.10;93.90;;;;;;5064660;28;20222;-69
2021/11/21 08:31:17;;;;;;;25.23;11.00;;;9.10;93.90;;;;;;5064281;28;20550;-69
2021/11/21 08:33:45;;;;;;;21.00;11.13;;;9.10;93.90;;;;;;5063628;28;20684;-69
2021/11/21 08:36:12;;;;;;;23.60;11.23;;;9.20;93.90;;;;;;5062895;28;20214;-69
2021/11/21 08:38:39;;;;;;;18.53;10.53;;;9.10;93.90;;;;;;5068012;28;20229;-69
2021/11/21 08:41:06;;;;;;;18.47;11.60;;;9.20;93.90;;;;;;5065549;28;20207;-69
2021/11/21 08:43:33;;;;;;;18.10;11.43;;;9.30;93.90;;;;;;5067474;28;20234;-69
2021/11/21 08:46:00;;;;;;;21.10;11.53;;;9.30;94.00;;;;;;5067192;28;20275;-69
2021/11/21 08:48:27;;;;;;;20.57;10.60;;;9.30;93.90;;;;;;5067398;28;20218;-69
2021/11/21 08:50:56;;;;;;;17.90;12.30;;;9.30;93.90;;;;;;5066819;28;20230;-69
2021/11/21 08:53:24;;;;;;;15.17;9.93;;;9.40;93.80;;;;;;5066484;28;20309;-69
2021/11/21 08:55:51;;;;;;;17.90;11.10;;;9.40;93.80;;;;;;5064182;28;20209;-69
2021/11/21 08:58:18;;;;;;;17.00;10.53;;;9.40;93.70;;;;;;5067257;28;20267;-70
2021/11/21 09:00:45;;;;;;;22.67;10.33;;;9.40;93.50;;;;;;5071344;28;20214;-70
2021/11/21 09:03:12;;;;;;;16.40;9.63;;;9.40;93.20;;;;;;5066014;28;20654;-70
2021/11/21 09:05:40;;;;;;;14.07;9.23;;;9.30;93.00;;;;;;5066568;28;20229;-70
2021/11/21 09:08:14;;;;;;;14.40;9.73;;;9.30;93.10;;;;;;5062855;28;20242;-70
2021/11/21 09:10:41;;;;;;;15.00;9.63;;;9.30;93.20;;;;;;5068025;28;20244;-70
2021/11/21 09:13:09;;;;;;;16.23;9.80;;;9.30;93.20;;;;;;5065203;28;20591;-70
2021/11/21 09:15:36;;;;;;;18.53;10.50;;;9.20;93.10;;;;;;5069956;28;20239;-70
2021/11/21 09:18:03;;;;;;;18.73;11.27;;;9.20;93.10;;;;;;5065231;28;20249;-70
2021/11/21 09:20:30;;;;;;;15.80;9.47;;;9.20;93.20;;;;;;5065188;28;20218;-70
2021/11/21 09:22:58;;;;;;;15.63;9.93;;;9.20;93.20;;;;;;5064702;28;20238;-70
2021/11/21 09:25:25;;;;;;;18.50;10.40;;;9.20;93.30;;;;;;5063928;28;20241;-70
2021/11/21 09:27:52;;;;;;;21.60;10.83;;;9.20;93.40;;;;;;5067541;28;20211;-70
2021/11/21 09:30:19;;;;;;;17.80;9.60;;;9.30;93.50;;;;;;5063853;28;20283;-70
2021/11/21 09:32:46;;;;;;;13.30;9.50;;;9.30;93.40;;;;;;5061044;28;20638;-70
2021/11/21 09:35:14;;;;;;;15.20;10.30;;;9.30;93.30;;;;;;5075099;28;20217;-70
2021/11/21 09:37:41;;;;;;;16.63;11.47;;;9.30;93.30;;;;;;5061103;28;20630;-70
2021/11/21 09:40:10;;;;;;;17.57;10.30;;;9.40;93.40;;;;;;5073884;28;20217;-70
2021/11/21 09:42:38;;;;;;;23.40;10.27;;;9.50;93.50;;;;;;5071768;28;20696;-70
2021/11/21 09:45:09;;;;;;;80.93;10.70;;;9.50;93.20;;;;;;5053250;28;20295;-70
2021/11/21 09:47:36;;;;;;;47.57;10.33;;;9.50;93.10;;;;;;5039775;28;20234;-70
2021/11/21 09:50:09;;;;;;;31.37;11.40;;;9.50;92.80;;;;;;5041302;28;20273;-70
2021/11/21 09:52:37;;;;;;;25.63;10.93;;;9.40;92.80;;;;;;5043174;28;20206;-70
2021/11/21 09:55:06;;;;;;;18.77;10.70;;;9.40;92.80;;;;;;5049785;28;20226;-70
2021/11/21 09:57:36;;;;;;;26.00;11.03;;;9.40;92.90;;;;;;5048869;28;20226;-70
2021/11/21 10:00:11;;;;;;;28.47;11.17;;;9.50;92.90;;;;;;5048301;28;20226;-70
2021/11/21 10:02:43;;;;;;;39.80;10.87;;;9.40;92.90;;;;;;5042533;28;20226;-70
2021/11/21 10:05:24;;;;;;;46.57;12.13;;;9.40;92.60;;;;;;5047497;28;20323;-70
2021/11/21 10:08:05;;;;;;;19.93;10.20;;;9.40;92.60;;;;;;5043831;28;20538;-70
2021/11/21 10:10:44;;;;;;;19.33;11.30;;;9.40;92.70;;;;;;5041219;28;20690;-70
2021/11/21 10:13:29;;;;;;;21.60;11.23;;;9.40;92.80;;;;;;5046282;28;20222;-70
2021/11/21 10:15:59;;;;;;;22.37;11.90;;;9.50;93.00;;;;;;5043799;28;20210;-70
2021/11/21 10:18:26;;;;;;;46.33;11.90;;;9.50;93.10;;;;;;5044626;28;20218;-70
2021/11/21 10:20:53;;;;;;;17.83;11.93;;;9.50;93.10;;;;;;5042567;28;20284;-70
2021/11/21 10:23:22;;;;;;;16.93;11.67;;;9.50;92.90;;;;;;5056439;28;20249;-70
2021/11/21 10:25:53;;;;;;;60.73;11.87;;;9.60;93.00;;;;;;5049428;28;20297;-70
2021/11/21 10:28:32;;;;;;;30.37;12.20;;;9.60;92.90;;;;;;5050945;28;20211;-70
2021/11/21 10:31:04;;;;;;;30.77;11.03;;;9.50;92.60;;;;;;5046114;28;20207;-70
2021/11/21 10:33:37;;;;;;;19.33;10.87;;;9.50;92.60;;;;;;5044823;28;20226;-70
2021/11/21 10:36:08;;;;;;;26.37;10.87;;;9.40;92.70;;;;;;5050269;28;20222;-70
2021/11/21 10:38:43;;;;;;;19.23;12.77;;;9.40;93.00;;;;;;5036045;28;20222;-70
2021/11/21 10:41:16;;;;;;;24.23;13.93;;;9.40;93.20;;;;;;5041927;28;20213;-70
2021/11/21 10:43:55;;;;;;;30.30;12.17;;;9.50;93.40;;;;;;5049338;28;20595;-70
2021/11/21 10:46:26;;;;;;;29.93;12.20;;;9.50;93.40;;;;;;5069794;28;20210;-70
2021/11/21 10:48:53;;;;;;;17.07;12.03;;;9.50;93.30;;;;;;5056040;28;20222;-70
2021/11/21 10:51:24;;;;;;;28.07;12.07;;;9.50;93.20;;;;;;5043947;28;20211;-70
2021/11/21 10:53:51;;;;;;;57.47;13.13;;;9.60;93.20;;;;;;5036444;28;20223;-70
2021/11/21 10:56:19;;;;;;;73.80;12.90;;;9.60;93.10;;;;;;5037364;28;20223;-70
2021/11/21 10:58:50;;;;;;;34.37;12.77;;;9.60;93.00;;;;;;5042107;28;20245;-70
2021/11/21 11:01:28;;;;;;;48.37;12.97;;;9.60;93.00;;;;;;5041360;28;20211;-70
2021/11/21 11:04:11;;;;;;;23.13;12.83;;;9.60;93.00;;;;;;5046054;28;20237;-70
2021/11/21 11:06:40;;;;;;;19.70;12.50;;;9.60;93.10;;;;;;5037971;28;20206;-70
2021/11/21 11:09:14;;;;;;;25.30;12.40;;;9.70;93.20;;;;;;5039777;28;20239;-71
2021/11/21 11:11:43;;;;;;;21.53;12.73;;;9.70;93.30;;;;;;5039150;28;20213;-71
2021/11/21 11:14:13;;;;;;;23.23;13.83;;;9.70;93.20;;;;;;5044652;28;20235;-71
2021/11/21 11:16:40;;;;;;;35.73;13.30;;;9.80;93.30;;;;;;5063460;28;20792;-71
2021/11/21 11:19:08;;;;;;;17.43;12.67;;;9.80;93.30;;;;;;5046245;28;20655;-71
2021/11/21 11:21:35;;;;;;;25.17;12.90;;;9.80;93.10;;;;;;5045444;28;20555;-71
2021/11/21 11:24:03;;;;;;;27.13;11.70;;;9.80;93.10;;;;;;5061531;28;20239;-71
2021/11/21 11:26:34;;;;;;;26.47;13.97;;;9.80;93.20;;;;;;5060903;28;20309;-71
2021/11/21 11:29:05;;;;;;;34.20;12.63;;;9.90;93.30;;;;;;5041318;28;20622;-71
2021/11/21 11:31:35;;;;;;;37.23;13.83;;;9.90;93.00;;;;;;5044894;28;20601;-71
2021/11/21 11:34:05;;;;;;;35.13;13.00;;;9.90;92.90;;;;;;5059419;28;20248;-71
2021/11/21 11:36:34;;;;;;;42.93;12.60;;;9.80;92.80;;;;;;5043123;28;20227;-71
2021/11/21 11:39:05;;;;;;;25.27;13.47;;;9.80;93.00;;;;;;5044450;28;20682;-71
2021/11/21 11:41:53;;;;;;;25.57;13.80;;;9.70;93.10;;;;;;5046225;28;20268;-71
2021/11/21 11:44:21;;;;;;;31.53;14.40;;;9.80;93.30;;;;;;5042767;28;20720;-71
2021/11/21 11:46:48;;;;;;;30.93;13.70;;;9.80;93.40;;;;;;5043693;28;20641;-71
2021/11/21 11:49:15;;;;;;;35.43;13.23;;;9.80;93.40;;;;;;5049463;28;20211;-71
2021/11/21 11:51:49;;;;;;;30.60;14.23;;;9.80;93.20;;;;;;5065319;28;20663;-71
2021/11/21 11:54:24;;;;;;;26.73;14.67;;;9.80;93.20;;;;;;5035267;28;20222;-70
2021/11/21 11:57:03;;;;;;;25.13;14.37;;;9.80;93.50;;;;;;5038559;28;20211;-70
2021/11/21 11:59:47;;;;;;;24.37;14.33;;;9.90;93.70;;;;;;5049287;28;20230;-70
2021/11/21 12:02:28;;;;;;;30.57;14.93;;;9.90;93.80;;;;;;5044859;28;20222;-70
2021/11/21 12:04:58;;;;;;;27.37;14.43;;;9.90;93.80;;;;;;5039187;28;20235;-70
2021/11/21 12:07:34;;;;;;;29.43;14.53;;;9.90;93.70;;;;;;5041507;28;20273;-70
2021/11/21 12:10:19;;;;;;;33.47;15.07;;;9.90;93.70;;;;;;5039011;28;20634;-70
2021/11/21 12:13:02;;;;;;;27.93;14.23;;;9.90;93.60;;;;;;5049839;28;20230;-70
2021/11/21 12:15:51;;;;;;;27.73;13.80;;;10.00;93.60;;;;;;5037842;28;20302;-70
2021/11/21 12:18:20;;;;;;;26.97;15.33;;;10.00;93.70;;;;;;5037900;28;20222;-70
2021/11/21 12:20:54;;;;;;;24.00;15.80;;;10.00;93.70;;;;;;5040519;28;20287;-70
2021/11/21 12:23:43;;;;;;;35.37;15.47;;;10.00;93.70;;;;;;5041575;28;20218;-71
2021/11/21 12:26:41;;;;;;;25.83;14.70;;;10.00;93.60;;;;;;5041771;28;20309;-71
2021/11/21 12:29:34;;;;;;;28.20;14.73;;;10.00;93.40;;;;;;5042683;28;20214;-71
2021/11/21 12:32:23;;;;;;;39.13;15.47;;;9.90;93.60;;;;;;5038783;28;20619;-71
2021/11/21 12:34:51;;;;;;;22.73;14.77;;;9.90;93.80;;;;;;5045285;28;20214;-71
2021/11/21 12:37:26;;;;;;;30.80;14.20;;;9.90;93.80;;;;;;5040348;28;20222;-71
2021/11/21 12:40:10;;;;;;;34.40;14.93;;;9.90;93.80;;;;;;5050501;28;20219;-71
2021/11/21 12:42:39;;;;;;;24.97;15.80;;;9.90;94.10;;;;;;5047388;28;20614;-71
2021/11/21 12:45:15;;;;;;;28.07;16.30;;;9.90;93.70;;;;;;5046717;28;20557;-71
2021/11/21 12:47:45;;;;;;;29.23;15.93;;;9.90;93.80;;;;;;5041778;28;20217;-71